sensor_id;sensor_type;location;lat;lon;timestamp;P1;durP1;ratioP1;P2;durP2;ratioP2
41446;SDS011;27185;52.040;4.490;2023-04-25T00:02:14;13.40;;;2.35;;
41446;SDS011;27185;52.040;4.490;2023-04-25T00:05:00;11.02;;;2.50;;
41446;SDS011;27185;52.040;4.490;2023-04-25T00:07:50;10.40;;;2.50;;
41446;SDS011;27185;52.040;4.490;2023-04-25T00:10:36;10.27;;;2.20;;
41446;SDS011;27185;52.040;4.490;2023-04-25T00:13:21;12.93;;;2.00;;
41446;SDS011;27185;52.040;4.490;2023-04-25T00:16:07;19.50;;;2.22;;
41446;SDS011;27185;52.040;4.490;2023-04-25T00:18:52;14.00;;;2.38;;
41446;SDS011;27185;52.040;4.490;2023-04-25T00:21:38;12.32;;;2.35;;
41446;SDS011;27185;52.040;4.490;2023-04-25T00:24:25;8.85;;;2.13;;
41446;SDS011;27185;52.040;4.490;2023-04-25T00:27:11;11.30;;;2.03;;
41446;SDS011;27185;52.040;4.490;2023-04-25T00:29:56;13.07;;;2.55;;
41446;SDS011;27185;52.040;4.490;2023-04-25T00:32:42;17.08;;;2.25;;
41446;SDS011;27185;52.040;4.490;2023-04-25T00:35:27;12.93;;;2.00;;
41446;SDS011;27185;52.040;4.490;2023-04-25T00:38:13;11.57;;;2.28;;
41446;SDS011;27185;52.040;4.490;2023-04-25T00:40:58;16.80;;;3.63;;
41446;SDS011;27185;52.040;4.490;2023-04-25T00:43:44;21.15;;;2.30;;
41446;SDS011;27185;52.040;4.490;2023-04-25T00:46:32;7.28;;;1.88;;
41446;SDS011;27185;52.040;4.490;2023-04-25T00:49:17;13.43;;;2.00;;
41446;SDS011;27185;52.040;4.490;2023-04-25T00:52:03;12.25;;;2.33;;
41446;SDS011;27185;52.040;4.490;2023-04-25T00:54:50;13.03;;;1.97;;
41446;SDS011;27185;52.040;4.490;2023-04-25T00:57:36;8.82;;;1.67;;
41446;SDS011;27185;52.040;4.490;2023-04-25T01:00:22;14.32;;;2.45;;
41446;SDS011;27185;52.040;4.490;2023-04-25T01:03:08;10.38;;;2.00;;
41446;SDS011;27185;52.040;4.490;2023-04-25T01:05:55;17.25;;;2.47;;
41446;SDS011;27185;52.040;4.490;2023-04-25T01:08:41;12.73;;;1.98;;
41446;SDS011;27185;52.040;4.490;2023-04-25T01:11:27;15.20;;;2.13;;
41446;SDS011;27185;52.040;4.490;2023-04-25T01:14:12;12.38;;;2.40;;
41446;SDS011;27185;52.040;4.490;2023-04-25T01:16:58;15.32;;;2.50;;
41446;SDS011;27185;52.040;4.490;2023-04-25T01:19:43;17.67;;;3.00;;
41446;SDS011;27185;52.040;4.490;2023-04-25T01:22:31;11.20;;;1.70;;
41446;SDS011;27185;52.040;4.490;2023-04-25T01:25:17;13.10;;;1.80;;
41446;SDS011;27185;52.040;4.490;2023-04-25T01:28:03;16.13;;;2.13;;
41446;SDS011;27185;52.040;4.490;2023-04-25T01:30:50;13.77;;;2.35;;
41446;SDS011;27185;52.040;4.490;2023-04-25T01:33:36;11.13;;;1.95;;
41446;SDS011;27185;52.040;4.490;2023-04-25T01:36:22;11.80;;;2.13;;
41446;SDS011;27185;52.040;4.490;2023-04-25T01:39:08;8.98;;;2.22;;
41446;SDS011;27185;52.040;4.490;2023-04-25T01:41:54;12.93;;;2.10;;
41446;SDS011;27185;52.040;4.490;2023-04-25T01:44:39;7.18;;;1.58;;
41446;SDS011;27185;52.040;4.490;2023-04-25T01:47:25;14.90;;;1.92;;
41446;SDS011;27185;52.040;4.490;2023-04-25T01:50:11;8.13;;;1.65;;
41446;SDS011;27185;52.040;4.490;2023-04-25T01:52:56;11.38;;;2.00;;
41446;SDS011;27185;52.040;4.490;2023-04-25T01:55:42;9.50;;;1.80;;
41446;SDS011;27185;52.040;4.490;2023-04-25T01:58:27;6.13;;;1.52;;
41446;SDS011;27185;52.040;4.490;2023-04-25T02:01:13;7.78;;;2.22;;
41446;SDS011;27185;52.040;4.490;2023-04-25T02:03:59;11.00;;;2.10;;
41446;SDS011;27185;52.040;4.490;2023-04-25T02:06:44;6.72;;;1.30;;
41446;SDS011;27185;52.040;4.490;2023-04-25T02:09:30;9.45;;;1.33;;
41446;SDS011;27185;52.040;4.490;2023-04-25T02:12:16;8.88;;;1.65;;
41446;SDS011;27185;52.040;4.490;2023-04-25T02:15:02;10.82;;;1.40;;
41446;SDS011;27185;52.040;4.490;2023-04-25T02:17:47;11.15;;;2.28;;
41446;SDS011;27185;52.040;4.490;2023-04-25T02:20:33;8.50;;;1.70;;
41446;SDS011;27185;52.040;4.490;2023-04-25T02:23:19;7.35;;;1.50;;
41446;SDS011;27185;52.040;4.490;2023-04-25T02:26:05;9.50;;;1.88;;
41446;SDS011;27185;52.040;4.490;2023-04-25T02:28:51;6.20;;;1.70;;
41446;SDS011;27185;52.040;4.490;2023-04-25T02:31:36;9.88;;;1.60;;
41446;SDS011;27185;52.040;4.490;2023-04-25T02:34:22;5.50;;;1.80;;
41446;SDS011;27185;52.040;4.490;2023-04-25T02:37:08;10.98;;;1.70;;
41446;SDS011;27185;52.040;4.490;2023-04-25T02:39:53;8.90;;;1.48;;
41446;SDS011;27185;52.040;4.490;2023-04-25T02:42:39;7.90;;;1.75;;
41446;SDS011;27185;52.040;4.490;2023-04-25T02:45:24;6.18;;;1.63;;
41446;SDS011;27185;52.040;4.490;2023-04-25T02:48:10;7.57;;;1.20;;
41446;SDS011;27185;52.040;4.490;2023-04-25T02:50:55;7.07;;;1.20;;
41446;SDS011;27185;52.040;4.490;2023-04-25T02:53:41;9.52;;;1.80;;
41446;SDS011;27185;52.040;4.490;2023-04-25T02:56:27;7.22;;;1.75;;
41446;SDS011;27185;52.040;4.490;2023-04-25T02:59:12;9.73;;;1.45;;
41446;SDS011;27185;52.040;4.490;2023-04-25T03:01:58;7.43;;;1.38;;
41446;SDS011;27185;52.040;4.490;2023-04-25T03:04:43;4.63;;;1.20;;
41446;SDS011;27185;52.040;4.490;2023-04-25T03:07:29;6.65;;;1.40;;
41446;SDS011;27185;52.040;4.490;2023-04-25T03:10:14;9.00;;;0.80;;
41446;SDS011;27185;52.040;4.490;2023-04-25T03:13:00;5.93;;;0.93;;
41446;SDS011;27185;52.040;4.490;2023-04-25T03:15:45;13.25;;;1.40;;
41446;SDS011;27185;52.040;4.490;2023-04-25T03:18:31;9.57;;;1.25;;
41446;SDS011;27185;52.040;4.490;2023-04-25T03:21:17;8.10;;;1.27;;
41446;SDS011;27185;52.040;4.490;2023-04-25T03:24:03;9.30;;;1.55;;
41446;SDS011;27185;52.040;4.490;2023-04-25T03:26:49;5.38;;;0.80;;
41446;SDS011;27185;52.040;4.490;2023-04-25T03:29:35;7.18;;;1.02;;
41446;SDS011;27185;52.040;4.490;2023-04-25T03:32:20;9.50;;;1.23;;
41446;SDS011;27185;52.040;4.490;2023-04-25T03:35:06;7.03;;;1.38;;
41446;SDS011;27185;52.040;4.490;2023-04-25T03:37:52;9.40;;;1.13;;
41446;SDS011;27185;52.040;4.490;2023-04-25T03:40:37;6.95;;;0.90;;
41446;SDS011;27185;52.040;4.490;2023-04-25T03:43:23;8.90;;;1.30;;
41446;SDS011;27185;52.040;4.490;2023-04-25T03:46:08;6.32;;;1.00;;
41446;SDS011;27185;52.040;4.490;2023-04-25T03:48:54;8.10;;;1.10;;
41446;SDS011;27185;52.040;4.490;2023-04-25T03:51:40;8.55;;;1.42;;
41446;SDS011;27185;52.040;4.490;2023-04-25T03:54:25;6.05;;;1.10;;
41446;SDS011;27185;52.040;4.490;2023-04-25T03:57:11;5.22;;;0.90;;
41446;SDS011;27185;52.040;4.490;2023-04-25T03:59:56;10.52;;;1.52;;
41446;SDS011;27185;52.040;4.490;2023-04-25T04:02:42;8.90;;;1.70;;
41446;SDS011;27185;52.040;4.490;2023-04-25T04:05:27;12.45;;;1.75;;
41446;SDS011;27185;52.040;4.490;2023-04-25T04:08:13;6.82;;;0.88;;
41446;SDS011;27185;52.040;4.490;2023-04-25T04:10:59;6.07;;;1.60;;
41446;SDS011;27185;52.040;4.490;2023-04-25T04:13:45;8.05;;;1.30;;
41446;SDS011;27185;52.040;4.490;2023-04-25T04:16:30;8.25;;;0.80;;
41446;SDS011;27185;52.040;4.490;2023-04-25T04:19:16;8.60;;;1.08;;
41446;SDS011;27185;52.040;4.490;2023-04-25T04:22:01;7.10;;;1.00;;
41446;SDS011;27185;52.040;4.490;2023-04-25T04:24:47;7.43;;;1.08;;
41446;SDS011;27185;52.040;4.490;2023-04-25T04:27:34;6.32;;;0.90;;
41446;SDS011;27185;52.040;4.490;2023-04-25T04:30:21;10.43;;;1.40;;
41446;SDS011;27185;52.040;4.490;2023-04-25T04:33:09;5.85;;;1.02;;
41446;SDS011;27185;52.040;4.490;2023-04-25T04:35:54;6.60;;;0.95;;
41446;SDS011;27185;52.040;4.490;2023-04-25T04:38:40;7.25;;;1.42;;
41446;SDS011;27185;52.040;4.490;2023-04-25T04:41:27;6.63;;;1.50;;
41446;SDS011;27185;52.040;4.490;2023-04-25T04:44:12;7.85;;;1.10;;
41446;SDS011;27185;52.040;4.490;2023-04-25T04:46:59;10.00;;;1.13;;
41446;SDS011;27185;52.040;4.490;2023-04-25T04:49:44;6.45;;;1.23;;
41446;SDS011;27185;52.040;4.490;2023-04-25T04:52:30;6.90;;;1.05;;
41446;SDS011;27185;52.040;4.490;2023-04-25T04:55:16;7.15;;;1.17;;
41446;SDS011;27185;52.040;4.490;2023-04-25T04:58:01;9.70;;;1.98;;
41446;SDS011;27185;52.040;4.490;2023-04-25T05:00:47;4.22;;;0.80;;
41446;SDS011;27185;52.040;4.490;2023-04-25T05:03:32;6.00;;;1.13;;
41446;SDS011;27185;52.040;4.490;2023-04-25T05:06:18;8.68;;;1.58;;
41446;SDS011;27185;52.040;4.490;2023-04-25T05:09:04;14.07;;;1.20;;
41446;SDS011;27185;52.040;4.490;2023-04-25T05:11:50;7.10;;;1.15;;
41446;SDS011;27185;52.040;4.490;2023-04-25T05:14:35;5.53;;;0.93;;
41446;SDS011;27185;52.040;4.490;2023-04-25T05:17:21;9.55;;;1.10;;
41446;SDS011;27185;52.040;4.490;2023-04-25T05:20:07;11.18;;;1.30;;
41446;SDS011;27185;52.040;4.490;2023-04-25T05:22:54;8.75;;;1.50;;
41446;SDS011;27185;52.040;4.490;2023-04-25T05:25:40;5.32;;;1.20;;
41446;SDS011;27185;52.040;4.490;2023-04-25T05:28:25;5.53;;;1.00;;
41446;SDS011;27185;52.040;4.490;2023-04-25T05:31:11;7.97;;;1.30;;
41446;SDS011;27185;52.040;4.490;2023-04-25T05:33:56;7.07;;;1.05;;
41446;SDS011;27185;52.040;4.490;2023-04-25T05:36:42;5.15;;;1.13;;
41446;SDS011;27185;52.040;4.490;2023-04-25T05:39:28;4.47;;;0.82;;
41446;SDS011;27185;52.040;4.490;2023-04-25T05:42:13;4.65;;;0.95;;
41446;SDS011;27185;52.040;4.490;2023-04-25T05:44:59;7.72;;;1.05;;
41446;SDS011;27185;52.040;4.490;2023-04-25T05:47:45;4.45;;;0.80;;
41446;SDS011;27185;52.040;4.490;2023-04-25T05:50:31;2.08;;;0.50;;
41446;SDS011;27185;52.040;4.490;2023-04-25T05:53:16;6.32;;;1.10;;
41446;SDS011;27185;52.040;4.490;2023-04-25T05:56:03;2.88;;;0.80;;
41446;SDS011;27185;52.040;4.490;2023-04-25T05:58:49;4.43;;;0.60;;
41446;SDS011;27185;52.040;4.490;2023-04-25T06:01:34;6.15;;;0.98;;
41446;SDS011;27185;52.040;4.490;2023-04-25T06:04:20;2.80;;;0.60;;
41446;SDS011;27185;52.040;4.490;2023-04-25T06:07:05;6.63;;;0.80;;
41446;SDS011;27185;52.040;4.490;2023-04-25T06:09:51;7.95;;;0.98;;
41446;SDS011;27185;52.040;4.490;2023-04-25T06:12:36;5.97;;;0.73;;
41446;SDS011;27185;52.040;4.490;2023-04-25T06:15:23;2.38;;;0.50;;
41446;SDS011;27185;52.040;4.490;2023-04-25T06:18:09;2.67;;;0.63;;
41446;SDS011;27185;52.040;4.490;2023-04-25T06:20:55;6.30;;;0.70;;
41446;SDS011;27185;52.040;4.490;2023-04-25T06:23:41;3.90;;;0.40;;
41446;SDS011;27185;52.040;4.490;2023-04-25T06:26:26;2.95;;;0.50;;
41446;SDS011;27185;52.040;4.490;2023-04-25T06:29:12;3.80;;;0.70;;
41446;SDS011;27185;52.040;4.490;2023-04-25T06:31:57;2.17;;;0.55;;
41446;SDS011;27185;52.040;4.490;2023-04-25T06:34:43;4.25;;;0.50;;
41446;SDS011;27185;52.040;4.490;2023-04-25T06:37:29;5.50;;;0.50;;
41446;SDS011;27185;52.040;4.490;2023-04-25T06:40:15;5.88;;;0.85;;
41446;SDS011;27185;52.040;4.490;2023-04-25T06:43:02;5.10;;;0.70;;
41446;SDS011;27185;52.040;4.490;2023-04-25T06:45:47;6.10;;;1.13;;
41446;SDS011;27185;52.040;4.490;2023-04-25T06:48:33;4.72;;;0.90;;
41446;SDS011;27185;52.040;4.490;2023-04-25T06:51:19;6.07;;;0.75;;
41446;SDS011;27185;52.040;4.490;2023-04-25T06:54:04;5.22;;;1.00;;
41446;SDS011;27185;52.040;4.490;2023-04-25T06:56:50;5.38;;;0.88;;
41446;SDS011;27185;52.040;4.490;2023-04-25T06:59:36;5.90;;;0.70;;
41446;SDS011;27185;52.040;4.490;2023-04-25T07:02:21;4.00;;;0.70;;
41446;SDS011;27185;52.040;4.490;2023-04-25T07:05:07;3.58;;;0.82;;
41446;SDS011;27185;52.040;4.490;2023-04-25T07:07:53;6.07;;;0.85;;
41446;SDS011;27185;52.040;4.490;2023-04-25T07:10:38;7.03;;;1.15;;
41446;SDS011;27185;52.040;4.490;2023-04-25T07:13:25;5.78;;;0.60;;
41446;SDS011;27185;52.040;4.490;2023-04-25T07:16:10;5.47;;;0.80;;
41446;SDS011;27185;52.040;4.490;2023-04-25T07:18:56;4.32;;;0.95;;
41446;SDS011;27185;52.040;4.490;2023-04-25T07:21:41;4.43;;;0.70;;
41446;SDS011;27185;52.040;4.490;2023-04-25T07:24:27;3.72;;;0.60;;
41446;SDS011;27185;52.040;4.490;2023-04-25T07:27:12;8.02;;;1.02;;
41446;SDS011;27185;52.040;4.490;2023-04-25T07:29:58;6.10;;;0.80;;
41446;SDS011;27185;52.040;4.490;2023-04-25T07:32:43;6.03;;;1.00;;
41446;SDS011;27185;52.040;4.490;2023-04-25T07:35:30;7.80;;;0.85;;
41446;SDS011;27185;52.040;4.490;2023-04-25T07:38:15;9.68;;;0.75;;
41446;SDS011;27185;52.040;4.490;2023-04-25T07:41:01;8.55;;;1.00;;
41446;SDS011;27185;52.040;4.490;2023-04-25T07:43:46;5.20;;;0.70;;
41446;SDS011;27185;52.040;4.490;2023-04-25T07:46:32;6.38;;;0.68;;
41446;SDS011;27185;52.040;4.490;2023-04-25T07:49:18;9.02;;;0.77;;
41446;SDS011;27185;52.040;4.490;2023-04-25T07:52:04;4.90;;;0.65;;
41446;SDS011;27185;52.040;4.490;2023-04-25T07:54:51;7.70;;;0.60;;
41446;SDS011;27185;52.040;4.490;2023-04-25T07:57:37;5.25;;;0.70;;
41446;SDS011;27185;52.040;4.490;2023-04-25T08:00:23;8.30;;;0.88;;
41446;SDS011;27185;52.040;4.490;2023-04-25T08:03:09;7.40;;;1.35;;
41446;SDS011;27185;52.040;4.490;2023-04-25T08:05:54;6.38;;;0.95;;
41446;SDS011;27185;52.040;4.490;2023-04-25T08:08:40;6.50;;;1.02;;
41446;SDS011;27185;52.040;4.490;2023-04-25T08:11:26;5.88;;;1.10;;
41446;SDS011;27185;52.040;4.490;2023-04-25T08:14:12;4.95;;;0.85;;
41446;SDS011;27185;52.040;4.490;2023-04-25T08:16:58;8.43;;;1.50;;
41446;SDS011;27185;52.040;4.490;2023-04-25T08:19:43;9.43;;;1.42;;
41446;SDS011;27185;52.040;4.490;2023-04-25T08:22:29;8.40;;;0.75;;
41446;SDS011;27185;52.040;4.490;2023-04-25T08:25:15;9.77;;;1.10;;
41446;SDS011;27185;52.040;4.490;2023-04-25T08:28:01;5.35;;;0.60;;
41446;SDS011;27185;52.040;4.490;2023-04-25T08:30:47;3.28;;;0.68;;
41446;SDS011;27185;52.040;4.490;2023-04-25T08:33:33;9.02;;;0.90;;
41446;SDS011;27185;52.040;4.490;2023-04-25T08:36:19;6.95;;;0.85;;
41446;SDS011;27185;52.040;4.490;2023-04-25T08:39:04;7.85;;;0.73;;
41446;SDS011;27185;52.040;4.490;2023-04-25T08:41:50;5.97;;;0.65;;
41446;SDS011;27185;52.040;4.490;2023-04-25T08:44:37;4.15;;;0.60;;
41446;SDS011;27185;52.040;4.490;2023-04-25T08:47:23;5.85;;;0.70;;
41446;SDS011;27185;52.040;4.490;2023-04-25T08:50:10;4.30;;;0.70;;
41446;SDS011;27185;52.040;4.490;2023-04-25T08:52:55;7.20;;;0.93;;
41446;SDS011;27185;52.040;4.490;2023-04-25T08:55:46;10.07;;;0.73;;
41446;SDS011;27185;52.040;4.490;2023-04-25T08:58:33;4.03;;;0.70;;
41446;SDS011;27185;52.040;4.490;2023-04-25T09:01:19;2.70;;;0.50;;
41446;SDS011;27185;52.040;4.490;2023-04-25T09:04:05;6.43;;;0.52;;
41446;SDS011;27185;52.040;4.490;2023-04-25T09:06:51;3.42;;;0.60;;
41446;SDS011;27185;52.040;4.490;2023-04-25T09:09:36;4.53;;;0.68;;
41446;SDS011;27185;52.040;4.490;2023-04-25T09:12:22;6.20;;;0.77;;
41446;SDS011;27185;52.040;4.490;2023-04-25T09:15:08;8.00;;;1.08;;
41446;SDS011;27185;52.040;4.490;2023-04-25T09:17:56;5.43;;;0.60;;
41446;SDS011;27185;52.040;4.490;2023-04-25T09:20:42;4.82;;;1.00;;
41446;SDS011;27185;52.040;4.490;2023-04-25T09:23:28;4.82;;;0.80;;
41446;SDS011;27185;52.040;4.490;2023-04-25T09:26:18;4.25;;;0.35;;
41446;SDS011;27185;52.040;4.490;2023-04-25T09:29:07;4.70;;;0.80;;
41446;SDS011;27185;52.040;4.490;2023-04-25T09:31:53;2.90;;;0.40;;
41446;SDS011;27185;52.040;4.490;2023-04-25T09:34:55;4.57;;;0.52;;
41446;SDS011;27185;52.040;4.490;2023-04-25T09:37:42;7.32;;;0.70;;
41446;SDS011;27185;52.040;4.490;2023-04-25T09:40:27;5.57;;;0.60;;
41446;SDS011;27185;52.040;4.490;2023-04-25T09:46:09;7.88;;;0.63;;
41446;SDS011;27185;52.040;4.490;2023-04-25T09:48:56;4.95;;;0.70;;
41446;SDS011;27185;52.040;4.490;2023-04-25T09:51:41;4.40;;;0.57;;
41446;SDS011;27185;52.040;4.490;2023-04-25T09:54:27;5.78;;;0.90;;
41446;SDS011;27185;52.040;4.490;2023-04-25T09:57:22;7.60;;;0.80;;
41446;SDS011;27185;52.040;4.490;2023-04-25T10:00:09;9.18;;;0.88;;
41446;SDS011;27185;52.040;4.490;2023-04-25T10:02:57;7.80;;;0.70;;
41446;SDS011;27185;52.040;4.490;2023-04-25T10:05:46;5.78;;;0.60;;
41446;SDS011;27185;52.040;4.490;2023-04-25T10:08:35;6.35;;;0.63;;
41446;SDS011;27185;52.040;4.490;2023-04-25T10:11:22;3.45;;;0.60;;
41446;SDS011;27185;52.040;4.490;2023-04-25T10:14:11;6.57;;;0.63;;
41446;SDS011;27185;52.040;4.490;2023-04-25T10:16:58;6.72;;;0.80;;
41446;SDS011;27185;52.040;4.490;2023-04-25T10:19:44;6.50;;;0.98;;
41446;SDS011;27185;52.040;4.490;2023-04-25T10:25:21;2.50;;;0.70;;
41446;SDS011;27185;52.040;4.490;2023-04-25T10:28:08;5.05;;;1.00;;
41446;SDS011;27185;52.040;4.490;2023-04-25T10:33:46;3.60;;;0.75;;
41446;SDS011;27185;52.040;4.490;2023-04-25T10:36:33;5.15;;;0.60;;
41446;SDS011;27185;52.040;4.490;2023-04-25T10:39:23;5.63;;;0.68;;
41446;SDS011;27185;52.040;4.490;2023-04-25T10:42:10;6.60;;;0.60;;
41446;SDS011;27185;52.040;4.490;2023-04-25T10:45:06;4.22;;;0.40;;
41446;SDS011;27185;52.040;4.490;2023-04-25T10:47:52;3.58;;;0.40;;
41446;SDS011;27185;52.040;4.490;2023-04-25T10:50:37;3.83;;;0.55;;
41446;SDS011;27185;52.040;4.490;2023-04-25T10:53:24;3.15;;;0.52;;
41446;SDS011;27185;52.040;4.490;2023-04-25T10:56:16;3.85;;;0.50;;
41446;SDS011;27185;52.040;4.490;2023-04-25T10:59:04;2.60;;;0.95;;
41446;SDS011;27185;52.040;4.490;2023-04-25T11:01:52;4.03;;;0.50;;
41446;SDS011;27185;52.040;4.490;2023-04-25T11:04:40;5.63;;;0.60;;
41446;SDS011;27185;52.040;4.490;2023-04-25T11:07:29;4.32;;;0.63;;
41446;SDS011;27185;52.040;4.490;2023-04-25T11:10:40;6.97;;;0.50;;
41446;SDS011;27185;52.040;4.490;2023-04-25T11:13:29;4.20;;;0.68;;
41446;SDS011;27185;52.040;4.490;2023-04-25T11:16:15;6.18;;;0.60;;
41446;SDS011;27185;52.040;4.490;2023-04-25T11:19:01;4.45;;;0.60;;
41446;SDS011;27185;52.040;4.490;2023-04-25T11:21:48;3.90;;;0.70;;
41446;SDS011;27185;52.040;4.490;2023-04-25T11:24:34;3.97;;;0.60;;
41446;SDS011;27185;52.040;4.490;2023-04-25T11:27:21;5.70;;;0.70;;
41446;SDS011;27185;52.040;4.490;2023-04-25T11:30:10;3.20;;;0.73;;
41446;SDS011;27185;52.040;4.490;2023-04-25T11:33:00;3.33;;;0.47;;
41446;SDS011;27185;52.040;4.490;2023-04-25T11:35:47;4.40;;;0.80;;
41446;SDS011;27185;52.040;4.490;2023-04-25T11:38:33;4.13;;;0.70;;
41446;SDS011;27185;52.040;4.490;2023-04-25T11:41:19;8.82;;;0.93;;
41446;SDS011;27185;52.040;4.490;2023-04-25T11:44:07;4.43;;;0.50;;
41446;SDS011;27185;52.040;4.490;2023-04-25T11:46:52;3.47;;;0.75;;
41446;SDS011;27185;52.040;4.490;2023-04-25T11:49:38;4.68;;;0.60;;
41446;SDS011;27185;52.040;4.490;2023-04-25T11:52:23;3.50;;;0.57;;
41446;SDS011;27185;52.040;4.490;2023-04-25T11:55:13;5.63;;;1.20;;
41446;SDS011;27185;52.040;4.490;2023-04-25T11:57:59;4.43;;;0.70;;
41446;SDS011;27185;52.040;4.490;2023-04-25T12:00:45;5.95;;;0.70;;
41446;SDS011;27185;52.040;4.490;2023-04-25T12:03:31;2.67;;;0.40;;
41446;SDS011;27185;52.040;4.490;2023-04-25T12:06:17;5.88;;;0.50;;
41446;SDS011;27185;52.040;4.490;2023-04-25T12:09:04;4.75;;;0.70;;
41446;SDS011;27185;52.040;4.490;2023-04-25T12:11:53;4.43;;;0.98;;
41446;SDS011;27185;52.040;4.490;2023-04-25T12:14:40;3.65;;;0.40;;
41446;SDS011;27185;52.040;4.490;2023-04-25T12:17:26;2.88;;;0.50;;
41446;SDS011;27185;52.040;4.490;2023-04-25T12:20:14;5.30;;;0.70;;
41446;SDS011;27185;52.040;4.490;2023-04-25T12:23:01;5.50;;;0.50;;
41446;SDS011;27185;52.040;4.490;2023-04-25T12:25:52;3.97;;;0.50;;
41446;SDS011;27185;52.040;4.490;2023-04-25T12:28:37;6.65;;;0.60;;
41446;SDS011;27185;52.040;4.490;2023-04-25T12:31:23;5.00;;;0.65;;
41446;SDS011;27185;52.040;4.490;2023-04-25T12:34:09;4.35;;;0.68;;
41446;SDS011;27185;52.040;4.490;2023-04-25T12:36:54;6.85;;;0.88;;
41446;SDS011;27185;52.040;4.490;2023-04-25T12:39:41;3.53;;;0.57;;
41446;SDS011;27185;52.040;4.490;2023-04-25T12:42:27;3.47;;;0.50;;
41446;SDS011;27185;52.040;4.490;2023-04-25T12:45:12;6.55;;;0.50;;
41446;SDS011;27185;52.040;4.490;2023-04-25T12:47:58;4.63;;;0.65;;
41446;SDS011;27185;52.040;4.490;2023-04-25T12:50:43;4.57;;;0.60;;
41446;SDS011;27185;52.040;4.490;2023-04-25T12:53:29;4.22;;;0.57;;
41446;SDS011;27185;52.040;4.490;2023-04-25T12:56:15;5.00;;;0.68;;
41446;SDS011;27185;52.040;4.490;2023-04-25T12:59:01;3.22;;;0.52;;
41446;SDS011;27185;52.040;4.490;2023-04-25T13:01:47;6.03;;;0.73;;
41446;SDS011;27185;52.040;4.490;2023-04-25T13:04:33;4.82;;;0.50;;
41446;SDS011;27185;52.040;4.490;2023-04-25T13:07:19;5.70;;;0.95;;
41446;SDS011;27185;52.040;4.490;2023-04-25T13:10:05;3.78;;;0.60;;
41446;SDS011;27185;52.040;4.490;2023-04-25T13:12:51;2.65;;;0.50;;
41446;SDS011;27185;52.040;4.490;2023-04-25T13:15:37;5.50;;;0.70;;
41446;SDS011;27185;52.040;4.490;2023-04-25T13:18:22;7.35;;;0.73;;
41446;SDS011;27185;52.040;4.490;2023-04-25T13:21:11;4.80;;;0.55;;
41446;SDS011;27185;52.040;4.490;2023-04-25T13:23:57;6.30;;;0.75;;
41446;SDS011;27185;52.040;4.490;2023-04-25T13:26:43;10.82;;;1.08;;
41446;SDS011;27185;52.040;4.490;2023-04-25T13:29:29;4.63;;;0.65;;
41446;SDS011;27185;52.040;4.490;2023-04-25T13:32:14;6.63;;;0.70;;
41446;SDS011;27185;52.040;4.490;2023-04-25T13:35:00;5.90;;;0.80;;
41446;SDS011;27185;52.040;4.490;2023-04-25T13:37:45;3.95;;;0.60;;
41446;SDS011;27185;52.040;4.490;2023-04-25T13:40:31;6.90;;;0.60;;
41446;SDS011;27185;52.040;4.490;2023-04-25T13:43:17;4.47;;;0.70;;
41446;SDS011;27185;52.040;4.490;2023-04-25T13:46:04;4.15;;;0.80;;
41446;SDS011;27185;52.040;4.490;2023-04-25T13:48:49;4.47;;;0.63;;
41446;SDS011;27185;52.040;4.490;2023-04-25T13:51:35;4.70;;;0.50;;
41446;SDS011;27185;52.040;4.490;2023-04-25T13:54:20;4.78;;;0.70;;
41446;SDS011;27185;52.040;4.490;2023-04-25T13:57:06;5.15;;;0.85;;
41446;SDS011;27185;52.040;4.490;2023-04-25T13:59:52;3.05;;;0.45;;
41446;SDS011;27185;52.040;4.490;2023-04-25T14:02:38;4.47;;;0.60;;
41446;SDS011;27185;52.040;4.490;2023-04-25T14:05:24;3.85;;;0.75;;
41446;SDS011;27185;52.040;4.490;2023-04-25T14:08:09;3.40;;;0.50;;
41446;SDS011;27185;52.040;4.490;2023-04-25T14:10:55;3.95;;;0.70;;
41446;SDS011;27185;52.040;4.490;2023-04-25T14:13:41;5.15;;;0.55;;
41446;SDS011;27185;52.040;4.490;2023-04-25T14:16:26;3.80;;;0.55;;
41446;SDS011;27185;52.040;4.490;2023-04-25T14:19:12;7.00;;;0.65;;
41446;SDS011;27185;52.040;4.490;2023-04-25T14:21:58;3.17;;;0.43;;
41446;SDS011;27185;52.040;4.490;2023-04-25T14:24:44;2.10;;;0.52;;
41446;SDS011;27185;52.040;4.490;2023-04-25T14:27:29;3.40;;;0.70;;
41446;SDS011;27185;52.040;4.490;2023-04-25T14:30:18;3.60;;;1.00;;
41446;SDS011;27185;52.040;4.490;2023-04-25T14:33:05;4.97;;;0.60;;
41446;SDS011;27185;52.040;4.490;2023-04-25T14:35:51;3.15;;;0.70;;
41446;SDS011;27185;52.040;4.490;2023-04-25T14:38:37;2.53;;;0.47;;
41446;SDS011;27185;52.040;4.490;2023-04-25T14:41:26;2.97;;;0.55;;
41446;SDS011;27185;52.040;4.490;2023-04-25T14:44:12;3.63;;;0.80;;
41446;SDS011;27185;52.040;4.490;2023-04-25T14:46:57;4.22;;;0.77;;
41446;SDS011;27185;52.040;4.490;2023-04-25T14:49:43;3.67;;;0.68;;
41446;SDS011;27185;52.040;4.490;2023-04-25T14:52:31;6.35;;;0.75;;
41446;SDS011;27185;52.040;4.490;2023-04-25T14:55:17;4.50;;;0.70;;
41446;SDS011;27185;52.040;4.490;2023-04-25T14:58:02;5.90;;;1.17;;
41446;SDS011;27185;52.040;4.490;2023-04-25T15:00:48;4.00;;;0.60;;
41446;SDS011;27185;52.040;4.490;2023-04-25T15:03:34;6.47;;;1.02;;
41446;SDS011;27185;52.040;4.490;2023-04-25T15:06:19;3.72;;;0.60;;
41446;SDS011;27185;52.040;4.490;2023-04-25T15:09:05;4.35;;;0.90;;
41446;SDS011;27185;52.040;4.490;2023-04-25T15:11:51;5.25;;;0.60;;
41446;SDS011;27185;52.040;4.490;2023-04-25T15:14:36;5.07;;;0.63;;
41446;SDS011;27185;52.040;4.490;2023-04-25T15:17:22;5.60;;;0.73;;
41446;SDS011;27185;52.040;4.490;2023-04-25T15:20:09;4.05;;;0.90;;
41446;SDS011;27185;52.040;4.490;2023-04-25T15:25:43;4.57;;;0.60;;
41446;SDS011;27185;52.040;4.490;2023-04-25T15:28:28;4.65;;;0.70;;
41446;SDS011;27185;52.040;4.490;2023-04-25T15:31:14;8.98;;;1.00;;
41446;SDS011;27185;52.040;4.490;2023-04-25T15:33:59;4.60;;;0.80;;
41446;SDS011;27185;52.040;4.490;2023-04-25T15:36:45;5.25;;;0.70;;
41446;SDS011;27185;52.040;4.490;2023-04-25T15:39:30;2.50;;;0.63;;
41446;SDS011;27185;52.040;4.490;2023-04-25T15:42:16;5.45;;;0.90;;
41446;SDS011;27185;52.040;4.490;2023-04-25T15:45:03;5.18;;;0.65;;
41446;SDS011;27185;52.040;4.490;2023-04-25T15:47:49;2.78;;;0.55;;
41446;SDS011;27185;52.040;4.490;2023-04-25T15:50:36;7.20;;;1.42;;
41446;SDS011;27185;52.040;4.490;2023-04-25T15:53:22;4.10;;;0.85;;
41446;SDS011;27185;52.040;4.490;2023-04-25T15:56:08;5.50;;;0.90;;
41446;SDS011;27185;52.040;4.490;2023-04-25T15:58:53;4.93;;;0.80;;
41446;SDS011;27185;52.040;4.490;2023-04-25T16:01:39;4.70;;;0.70;;
41446;SDS011;27185;52.040;4.490;2023-04-25T16:04:24;4.28;;;0.60;;
41446;SDS011;27185;52.040;4.490;2023-04-25T16:07:12;2.35;;;0.60;;
41446;SDS011;27185;52.040;4.490;2023-04-25T16:09:58;3.92;;;0.70;;
41446;SDS011;27185;52.040;4.490;2023-04-25T16:12:44;5.75;;;0.73;;
41446;SDS011;27185;52.040;4.490;2023-04-25T16:15:32;6.60;;;0.80;;
41446;SDS011;27185;52.040;4.490;2023-04-25T16:18:17;4.57;;;0.70;;
41446;SDS011;27185;52.040;4.490;2023-04-25T16:21:03;4.63;;;0.80;;
41446;SDS011;27185;52.040;4.490;2023-04-25T16:23:48;6.18;;;0.70;;
41446;SDS011;27185;52.040;4.490;2023-04-25T16:26:35;3.95;;;0.88;;
41446;SDS011;27185;52.040;4.490;2023-04-25T16:29:20;4.75;;;0.73;;
41446;SDS011;27185;52.040;4.490;2023-04-25T16:32:06;4.20;;;0.60;;
41446;SDS011;27185;52.040;4.490;2023-04-25T16:34:52;4.60;;;0.80;;
41446;SDS011;27185;52.040;4.490;2023-04-25T16:37:38;6.28;;;0.85;;
41446;SDS011;27185;52.040;4.490;2023-04-25T16:40:23;6.93;;;0.60;;
41446;SDS011;27185;52.040;4.490;2023-04-25T16:43:09;5.43;;;0.70;;
41446;SDS011;27185;52.040;4.490;2023-04-25T16:45:54;7.47;;;0.70;;
41446;SDS011;27185;52.040;4.490;2023-04-25T16:48:40;3.10;;;0.70;;
41446;SDS011;27185;52.040;4.490;2023-04-25T16:51:26;3.42;;;0.60;;